Time;durP1;ratioP1;P1;durP2;ratioP2;P2;SDS_P1;SDS_P2;PMS_P1;PMS_P2;Temp;Humidity;BMP_temperature;BMP_pressure;BME280_temperature;BME280_humidity;BME280_pressure;Samples;Min_cycle;Max_cycle;Signal;HPM_P1;HPM_P2
2022/09/08 00:02:09;;;;;;;22.92;20.48;;;;;;;;;;5029614;28;20116;-63
2022/09/08 00:04:35;;;;;;;25.60;22.00;;;;;;;;;;5031612;28;20542;-64
2022/09/08 00:07:01;;;;;;;24.75;22.05;;;;;;;;;;5026496;28;20069;-64
2022/09/08 00:09:32;;;;;;;25.27;21.70;;;;;;;;;;5025055;28;20463;-64
2022/09/08 00:12:00;;;;;;;25.67;21.30;;;;;;;;;;5023302;28;20468;-63
2022/09/08 00:14:26;;;;;;;22.48;18.98;;;;;;;;;;5021462;28;20182;-64
2022/09/08 00:16:52;;;;;;;26.00;20.88;;;;;;;;;;5027401;28;20041;-63
2022/09/08 00:19:18;;;;;;;23.42;19.23;;;;;;;;;;5021380;28;20045;-63
2022/09/08 00:21:44;;;;;;;23.63;20.67;;;;;;;;;;5027709;28;20060;-63
2022/09/08 00:24:10;;;;;;;27.13;22.33;;;;;;;;;;5030797;28;20044;-63
2022/09/08 00:26:36;;;;;;;27.70;22.08;;;;;;;;;;5031021;28;20052;-63
2022/09/08 00:29:02;;;;;;;25.63;22.17;;;;;;;;;;5017800;28;20160;-63
2022/09/08 00:31:28;;;;;;;24.27;21.20;;;;;;;;;;5017857;28;20037;-64
2022/09/08 00:33:54;;;;;;;25.00;22.25;;;;;;;;;;5028436;28;20098;-63
2022/09/08 00:36:20;;;;;;;26.10;21.73;;;;;;;;;;5020673;28;20457;-64
2022/09/08 00:38:51;;;;;;;28.65;23.42;;;;;;;;;;5021447;28;20037;-63
2022/09/08 00:41:17;;;;;;;;;;;;;;;;;;5029863;28;20135;-64
2022/09/08 00:43:44;;;;;;;29.13;24.17;;;;;;;;;;5020309;28;19921;-63
2022/09/08 00:46:14;;;;;;;31.15;24.55;;;;;;;;;;5026077;28;20407;-63
2022/09/08 00:48:46;;;;;;;26.25;23.48;;;;;;;;;;5019412;28;20037;-64
2022/09/08 00:51:13;;;;;;;25.30;21.75;;;;;;;;;;5004249;28;20160;-63
2022/09/08 00:53:40;;;;;;;23.35;20.35;;;;;;;;;;5007347;28;20053;-63
2022/09/08 00:56:06;;;;;;;23.95;20.98;;;;;;;;;;5012668;28;20395;-63
2022/09/08 00:58:36;;;;;;;25.23;21.90;;;;;;;;;;5019034;28;20038;-63
2022/09/08 01:01:03;;;;;;;25.83;22.98;;;;;;;;;;5016824;28;20093;-63
2022/09/08 01:03:31;;;;;;;25.02;21.95;;;;;;;;;;5024098;28;20044;-64
2022/09/08 01:06:16;;;;;;;28.13;23.55;;;;;;;;;;5026515;28;20049;-63
2022/09/08 01:14:43;;;;;;;31.85;26.60;;;;;;;;;;5012443;28;20042;-63
2022/09/08 01:17:20;;;;;;;29.08;25.02;;;;;;;;;;5025038;28;20074;-63
2022/09/08 01:19:46;;;;;;;31.98;25.17;;;;;;;;;;5021277;28;20037;-63
2022/09/08 01:22:15;;;;;;;30.45;25.60;;;;;;;;;;5019008;28;20117;-64
2022/09/08 01:25:00;;;;;;;31.05;25.42;;;;;;;;;;5012403;28;20106;-63
2022/09/08 01:27:36;;;;;;;31.73;26.23;;;;;;;;;;5013928;28;20601;-63
2022/09/08 01:30:04;;;;;;;34.03;27.45;;;;;;;;;;5019408;28;20624;-63
2022/09/08 01:32:35;;;;;;;34.05;26.85;;;;;;;;;;5027208;28;20577;-63
2022/09/08 01:35:01;;;;;;;33.95;27.00;;;;;;;;;;5024136;28;20041;-63
2022/09/08 01:37:27;;;;;;;32.33;26.73;;;;;;;;;;5018818;28;20534;-64
2022/09/08 01:39:53;;;;;;;28.42;25.05;;;;;;;;;;5022668;28;20042;-64
2022/09/08 01:42:19;;;;;;;32.33;26.60;;;;;;;;;;5016127;28;20042;-63
2022/09/08 01:44:45;;;;;;;33.15;27.05;;;;;;;;;;5013295;28;20100;-63
2022/09/08 01:47:12;;;;;;;35.75;27.95;;;;;;;;;;5024147;28;20515;-63
2022/09/08 01:49:38;;;;;;;34.40;28.08;;;;;;;;;;5025131;28;20072;-63
2022/09/08 01:52:04;;;;;;;32.85;27.30;;;;;;;;;;5025095;28;20056;-63
2022/09/08 01:54:30;;;;;;;35.10;28.73;;;;;;;;;;5017475;28;20504;-63
2022/09/08 01:56:57;;;;;;;35.25;28.38;;;;;;;;;;5017548;28;20056;-64
2022/09/08 01:59:23;;;;;;;34.40;28.15;;;;;;;;;;5013457;28;20044;-63
2022/09/08 02:01:49;;;;;;;36.17;27.85;;;;;;;;;;5026165;28;20041;-64
2022/09/08 02:04:15;;;;;;;31.95;27.10;;;;;;;;;;5036030;28;20044;-64
2022/09/08 02:06:42;;;;;;;32.33;26.20;;;;;;;;;;5025763;28;20061;-63
2022/09/08 02:09:08;;;;;;;29.45;25.95;;;;;;;;;;5027656;28;20125;-63
2022/09/08 02:11:34;;;;;;;33.15;26.67;;;;;;;;;;5019682;28;20076;-63
2022/09/08 02:14:00;;;;;;;30.02;26.15;;;;;;;;;;5013299;28;20057;-63
2022/09/08 02:16:26;;;;;;;34.30;26.73;;;;;;;;;;5028121;28;20033;-63
2022/09/08 02:18:55;;;;;;;31.40;26.15;;;;;;;;;;5018259;28;20048;-63
2022/09/08 02:21:21;;;;;;;29.98;25.85;;;;;;;;;;5028440;28;20056;-63
2022/09/08 02:23:48;;;;;;;31.30;26.90;;;;;;;;;;5012799;28;20132;-63
2022/09/08 02:26:19;;;;;;;33.03;26.10;;;;;;;;;;5023814;28;20440;-63
2022/09/08 02:28:46;;;;;;;35.10;26.48;;;;;;;;;;5024055;28;20044;-63
2022/09/08 02:31:12;;;;;;;35.33;27.80;;;;;;;;;;5021177;28;20033;-63
2022/09/08 02:33:39;;;;;;;33.40;28.25;;;;;;;;;;5034810;28;20045;-63
2022/09/08 02:36:06;;;;;;;35.55;28.25;;;;;;;;;;5033723;28;20045;-63
2022/09/08 02:38:32;;;;;;;34.63;28.10;;;;;;;;;;5031229;28;20038;-63
2022/09/08 02:40:59;;;;;;;38.33;30.58;;;;;;;;;;5022872;28;20045;-63
2022/09/08 02:43:26;;;;;;;37.65;29.52;;;;;;;;;;5023734;28;20267;-63
2022/09/08 02:45:52;;;;;;;35.72;29.38;;;;;;;;;;5030602;28;20045;-63
2022/09/08 02:48:18;;;;;;;35.88;29.88;;;;;;;;;;5026523;28;20056;-63
2022/09/08 02:50:44;;;;;;;35.20;29.02;;;;;;;;;;5015389;28;20038;-63
2022/09/08 02:53:10;;;;;;;36.40;29.77;;;;;;;;;;5023281;28;20042;-63
2022/09/08 02:55:40;;;;;;;36.13;29.10;;;;;;;;;;5029038;28;20041;-63
2022/09/08 02:58:07;;;;;;;36.83;29.45;;;;;;;;;;5032932;28;20048;-63
2022/09/08 03:00:34;;;;;;;37.83;29.80;;;;;;;;;;5032044;28;20445;-63
2022/09/08 03:03:01;;;;;;;37.47;30.83;;;;;;;;;;5040507;28;20160;-63
2022/09/08 03:05:27;;;;;;;35.83;29.45;;;;;;;;;;5023796;28;20083;-63
2022/09/08 03:07:53;;;;;;;37.53;30.63;;;;;;;;;;5022236;28;20093;-63
2022/09/08 03:10:23;;;;;;;37.47;30.25;;;;;;;;;;5043503;28;20038;-63
2022/09/08 03:12:49;;;;;;;38.38;30.38;;;;;;;;;;5032298;28;20099;-63
2022/09/08 03:15:15;;;;;;;37.15;29.27;;;;;;;;;;5013506;28;20423;-63
2022/09/08 03:17:41;;;;;;;36.63;29.33;;;;;;;;;;5029963;28;20064;-63
2022/09/08 03:20:09;;;;;;;38.63;32.15;;;;;;;;;;5023648;28;20446;-63
2022/09/08 03:22:35;;;;;;;34.22;28.67;;;;;;;;;;5032466;28;20037;-63
2022/09/08 03:25:02;;;;;;;37.92;30.00;;;;;;;;;;5044532;28;20067;-63
2022/09/08 03:27:28;;;;;;;36.90;30.42;;;;;;;;;;5028027;28;20044;-63
2022/09/08 03:29:54;;;;;;;36.78;30.00;;;;;;;;;;5032236;28;20041;-63
2022/09/08 03:32:20;;;;;;;36.58;29.23;;;;;;;;;;5040784;28;20038;-63
2022/09/08 03:34:46;;;;;;;39.45;31.00;;;;;;;;;;5018577;28;20500;-63
2022/09/08 03:37:13;;;;;;;39.88;30.98;;;;;;;;;;5027350;28;20050;-63
2022/09/08 03:39:39;;;;;;;37.80;28.80;;;;;;;;;;5021553;28;20049;-63
2022/09/08 03:42:08;;;;;;;40.60;29.80;;;;;;;;;;5022345;28;20049;-63
2022/09/08 03:44:34;;;;;;;34.55;28.63;;;;;;;;;;5025848;28;20380;-63
2022/09/08 03:47:00;;;;;;;37.33;30.67;;;;;;;;;;5025700;28;20041;-63
2022/09/08 03:49:26;;;;;;;36.20;28.35;;;;;;;;;;5019889;28;21848;-63
2022/09/08 03:51:52;;;;;;;38.28;30.08;;;;;;;;;;5024036;28;20403;-63
2022/09/08 03:57:03;;;;;;;38.33;28.88;;;;;;;;;;5028484;28;20049;-63
2022/09/08 03:59:29;;;;;;;37.58;30.35;;;;;;;;;;5029370;28;20033;-63
2022/09/08 04:01:56;;;;;;;38.90;29.92;;;;;;;;;;5025549;28;20080;-63
2022/09/08 04:04:23;;;;;;;38.78;30.77;;;;;;;;;;5030094;28;20116;-63
2022/09/08 04:06:49;;;;;;;38.95;30.60;;;;;;;;;;5036465;28;20498;-63
2022/09/08 04:09:15;;;;;;;38.53;29.80;;;;;;;;;;5020265;28;20667;-63
2022/09/08 04:11:41;;;;;;;37.50;30.17;;;;;;;;;;5026591;28;20484;-64
2022/09/08 04:14:08;;;;;;;43.38;32.72;;;;;;;;;;5025346;28;20096;-63
2022/09/08 04:16:34;;;;;;;40.85;31.85;;;;;;;;;;5023802;28;20096;-63
2022/09/08 04:19:00;;;;;;;38.35;30.58;;;;;;;;;;5028188;28;20037;-63
2022/09/08 04:21:26;;;;;;;43.10;32.25;;;;;;;;;;5013677;28;20407;-63
2022/09/08 04:23:52;;;;;;;43.58;30.10;;;;;;;;;;5018563;28;20041;-63
2022/09/08 04:26:18;;;;;;;38.65;31.05;;;;;;;;;;5029692;28;20091;-63
2022/09/08 04:28:45;;;;;;;42.40;32.10;;;;;;;;;;5029147;28;20041;-63
2022/09/08 04:31:12;;;;;;;43.58;32.25;;;;;;;;;;5023236;28;20137;-63
2022/09/08 04:33:40;;;;;;;40.95;32.58;;;;;;;;;;5016158;28;20069;-64
2022/09/08 04:36:17;;;;;;;41.22;31.50;;;;;;;;;;5020007;28;20720;-63
2022/09/08 04:38:44;;;;;;;41.33;32.25;;;;;;;;;;5027299;28;20049;-63
2022/09/08 04:41:11;;;;;;;41.92;32.53;;;;;;;;;;5051716;23;20131;-64
2022/09/08 04:43:37;;;;;;;44.70;32.38;;;;;;;;;;5051221;28;20036;-64
2022/09/08 04:46:04;;;;;;;45.33;34.92;;;;;;;;;;5053831;28;20040;-65
2022/09/08 04:48:31;;;;;;;45.60;34.30;;;;;;;;;;5050764;28;20376;-65
2022/09/08 04:50:58;;;;;;;51.03;35.65;;;;;;;;;;5045576;28;20418;-64
2022/09/08 04:53:25;;;;;;;47.03;35.50;;;;;;;;;;5059255;28;20460;-65
2022/09/08 04:55:51;;;;;;;44.55;34.85;;;;;;;;;;5042354;28;20438;-65
2022/09/08 04:58:17;;;;;;;46.08;34.58;;;;;;;;;;5061491;28;20037;-65
2022/09/08 05:00:44;;;;;;;49.58;36.60;;;;;;;;;;5071588;28;20048;-65
2022/09/08 05:03:10;;;;;;;45.85;35.03;;;;;;;;;;5045681;28;20075;-65
2022/09/08 05:05:36;;;;;;;44.40;35.20;;;;;;;;;;5045860;28;20037;-64
2022/09/08 05:08:03;;;;;;;45.90;35.45;;;;;;;;;;5048763;28;20136;-64
2022/09/08 05:10:32;;;;;;;47.47;36.25;;;;;;;;;;5062091;28;20028;-64
2022/09/08 05:12:58;;;;;;;51.28;36.53;;;;;;;;;;5054173;28;20045;-64
2022/09/08 05:15:24;;;;;;;46.92;35.53;;;;;;;;;;5047511;28;20040;-64
2022/09/08 05:17:50;;;;;;;46.85;35.00;;;;;;;;;;5044966;28;20090;-64
2022/09/08 05:20:16;;;;;;;50.38;36.55;;;;;;;;;;5055298;28;20073;-65
2022/09/08 05:22:42;;;;;;;45.92;36.03;;;;;;;;;;5051828;28;20065;-65
2022/09/08 05:25:09;;;;;;;45.20;33.95;;;;;;;;;;5066086;28;20576;-65
2022/09/08 05:27:35;;;;;;;46.03;35.80;;;;;;;;;;5062097;28;20662;-65
2022/09/08 05:30:01;;;;;;;48.15;36.33;;;;;;;;;;5043575;28;20041;-64
2022/09/08 05:32:27;;;;;;;46.17;37.58;;;;;;;;;;5042612;28;20072;-64
2022/09/08 05:34:53;;;;;;;46.40;35.55;;;;;;;;;;5050005;28;20509;-64
2022/09/08 05:37:19;;;;;;;47.25;35.78;;;;;;;;;;5060463;28;20037;-64
2022/09/08 05:39:46;;;;;;;46.13;35.25;;;;;;;;;;5043246;28;20515;-65
2022/09/08 05:42:12;;;;;;;48.30;36.35;;;;;;;;;;5040965;28;20159;-64
2022/09/08 05:44:39;;;;;;;47.78;36.38;;;;;;;;;;5062435;28;20437;-64
2022/09/08 05:47:05;;;;;;;50.15;36.53;;;;;;;;;;5045887;28;20156;-65
2022/09/08 05:49:31;;;;;;;48.80;36.67;;;;;;;;;;5057385;28;20186;-64
2022/09/08 05:51:58;;;;;;;48.25;36.40;;;;;;;;;;5057723;28;20147;-64
2022/09/08 05:54:24;;;;;;;49.67;35.95;;;;;;;;;;5048463;28;20578;-64
2022/09/08 05:56:51;;;;;;;47.35;36.17;;;;;;;;;;5048929;28;20342;-64
2022/09/08 05:59:17;;;;;;;52.28;37.58;;;;;;;;;;5046636;28;20048;-64
2022/09/08 06:01:44;;;;;;;52.63;37.70;;;;;;;;;;5031163;28;20121;-65
2022/09/08 06:04:10;;;;;;;56.17;38.88;;;;;;;;;;5037361;28;20092;-64
2022/09/08 06:06:36;;;;;;;63.08;41.85;;;;;;;;;;5046930;28;20044;-65
2022/09/08 06:09:03;;;;;;;59.38;39.05;;;;;;;;;;5049688;28;20044;-64
2022/09/08 06:11:30;;;;;;;54.63;38.30;;;;;;;;;;5038149;28;20414;-64
2022/09/08 06:13:56;;;;;;;54.47;38.50;;;;;;;;;;5037204;28;20162;-63
2022/09/08 06:16:22;;;;;;;56.30;39.58;;;;;;;;;;5042469;28;20346;-63
2022/09/08 06:18:50;;;;;;;51.92;38.22;;;;;;;;;;5048445;28;20045;-63
2022/09/08 06:21:21;;;;;;;60.22;40.72;;;;;;;;;;5040251;28;20493;-63
2022/09/08 06:23:51;;;;;;;60.35;41.38;;;;;;;;;;5043325;28;20037;-65
2022/09/08 06:26:29;;;;;;;60.05;40.85;;;;;;;;;;5051083;28;20494;-63
2022/09/08 06:28:58;;;;;;;60.65;40.65;;;;;;;;;;5047404;28;20060;-64
2022/09/08 06:31:35;;;;;;;57.10;40.33;;;;;;;;;;5043896;28;20047;-64
2022/09/08 06:34:04;;;;;;;52.22;38.28;;;;;;;;;;5049059;28;20053;-64
2022/09/08 06:36:45;;;;;;;58.40;37.78;;;;;;;;;;5048010;28;20040;-63
2022/09/08 06:39:16;;;;;;;54.70;39.03;;;;;;;;;;5039967;28;20045;-63
2022/09/08 06:41:47;;;;;;;54.28;39.60;;;;;;;;;;5046179;28;20099;-64
2022/09/08 06:44:16;;;;;;;57.03;37.78;;;;;;;;;;5059402;28;20125;-64
2022/09/08 06:46:43;;;;;;;51.55;37.05;;;;;;;;;;5047124;28;20092;-63
2022/09/08 06:49:10;;;;;;;51.83;35.90;;;;;;;;;;5048651;28;20045;-63
2022/09/08 06:51:46;;;;;;;48.67;35.65;;;;;;;;;;5040943;28;20080;-63
2022/09/08 06:54:31;;;;;;;47.60;34.17;;;;;;;;;;5047715;28;20041;-63
2022/09/08 06:56:57;;;;;;;42.65;30.05;;;;;;;;;;5050541;28;20111;-63
2022/09/08 06:59:32;;;;;;;45.63;31.10;;;;;;;;;;5053504;28;20037;-64
2022/09/08 07:02:19;;;;;;;51.67;33.08;;;;;;;;;;5058093;28;20052;-62
2022/09/08 07:04:54;;;;;;;43.80;34.00;;;;;;;;;;5057796;28;20045;-63
2022/09/08 07:07:38;;;;;;;44.42;34.33;;;;;;;;;;5066215;28;20036;-63
2022/09/08 07:10:19;;;;;;;44.95;33.70;;;;;;;;;;5055294;28;20061;-63
2022/09/08 07:13:08;;;;;;;39.75;28.27;;;;;;;;;;5048047;28;20112;-63
2022/09/08 07:15:37;;;;;;;42.63;29.02;;;;;;;;;;5050368;28;20036;-62
2022/09/08 07:18:03;;;;;;;38.13;27.77;;;;;;;;;;5059805;28;20047;-62
2022/09/08 07:20:30;;;;;;;40.53;28.33;;;;;;;;;;5050509;28;20045;-62
2022/09/08 07:23:15;;;;;;;39.70;29.00;;;;;;;;;;5058771;28;20056;-62
2022/09/08 07:25:45;;;;;;;38.60;26.23;;;;;;;;;;5041047;28;20041;-63
2022/09/08 07:28:13;;;;;;;39.83;27.85;;;;;;;;;;5055434;28;20049;-63
2022/09/08 07:30:39;;;;;;;42.47;30.23;;;;;;;;;;5054357;28;20043;-63
2022/09/08 07:33:25;;;;;;;44.85;29.85;;;;;;;;;;5054742;28;20033;-62
2022/09/08 07:36:10;;;;;;;43.22;31.35;;;;;;;;;;5047016;28;20052;-62
2022/09/08 07:38:55;;;;;;;46.80;32.47;;;;;;;;;;5042673;28;20029;-64
2022/09/08 07:41:34;;;;;;;50.60;33.80;;;;;;;;;;5048733;28;20056;-63
2022/09/08 07:44:02;;;;;;;47.58;33.25;;;;;;;;;;5054460;28;20059;-63
2022/09/08 07:46:51;;;;;;;44.42;32.08;;;;;;;;;;5047678;28;20063;-63
2022/09/08 07:49:19;;;;;;;49.53;33.58;;;;;;;;;;5046618;28;20034;-62
2022/09/08 07:52:01;;;;;;;47.53;32.70;;;;;;;;;;5053426;28;20117;-63
2022/09/08 07:54:36;;;;;;;45.38;31.63;;;;;;;;;;5047656;28;20402;-63
2022/09/08 07:57:09;;;;;;;47.28;31.38;;;;;;;;;;5054618;28;20551;-62
2022/09/08 07:59:44;;;;;;;44.28;32.50;;;;;;;;;;5045814;28;20040;-63
2022/09/08 08:02:25;;;;;;;48.13;33.22;;;;;;;;;;5046655;28;20060;-63
2022/09/08 08:04:54;;;;;;;45.80;31.30;;;;;;;;;;5045011;28;20048;-63
2022/09/08 08:07:26;;;;;;;47.90;32.25;;;;;;;;;;5068189;28;20075;-64
2022/09/08 08:09:56;;;;;;;51.38;34.80;;;;;;;;;;5052109;28;20037;-63
2022/09/08 08:12:22;;;;;;;;;;;;;;;;;;5053214;28;20433;-63
2022/09/08 08:14:57;;;;;;;52.15;35.35;;;;;;;;;;5058010;28;19921;-63
2022/09/08 08:17:23;;;;;;;55.72;36.83;;;;;;;;;;5061538;28;20055;-63
2022/09/08 08:19:58;;;;;;;51.55;36.40;;;;;;;;;;5045880;28;20041;-63
2022/09/08 08:22:31;;;;;;;58.38;37.83;;;;;;;;;;5052484;28;20067;-63
2022/09/08 08:25:00;;;;;;;56.83;36.25;;;;;;;;;;5047791;28;20478;-63
2022/09/08 08:27:31;;;;;;;52.45;36.22;;;;;;;;;;5039186;28;20026;-63
2022/09/08 08:30:03;;;;;;;48.28;32.42;;;;;;;;;;5043683;28;20052;-63
2022/09/08 08:32:32;;;;;;;48.55;32.53;;;;;;;;;;5060937;28;20082;-63
2022/09/08 08:34:58;;;;;;;45.60;29.58;;;;;;;;;;5048887;28;20048;-63
2022/09/08 08:37:27;;;;;;;42.60;26.83;;;;;;;;;;5048797;28;20033;-63
2022/09/08 08:39:53;;;;;;;31.67;22.50;;;;;;;;;;5043268;28;20484;-63
2022/09/08 08:42:22;;;;;;;29.88;21.35;;;;;;;;;;5038073;28;20037;-63
2022/09/08 08:44:59;;;;;;;31.17;20.67;;;;;;;;;;5038548;28;20072;-63
2022/09/08 08:47:26;;;;;;;29.80;21.38;;;;;;;;;;5049734;28;20518;-63
2022/09/08 08:49:55;;;;;;;32.60;21.67;;;;;;;;;;5036643;28;20040;-64
2022/09/08 08:52:47;;;;;;;30.23;21.77;;;;;;;;;;5042423;28;20403;-63
2022/09/08 08:55:13;;;;;;;30.20;21.35;;;;;;;;;;5027818;28;20084;-64
2022/09/08 08:57:48;;;;;;;32.75;21.75;;;;;;;;;;5054629;28;20479;-64
2022/09/08 09:00:21;;;;;;;24.27;18.90;;;;;;;;;;5051792;28;20087;-63
2022/09/08 09:03:06;;;;;;;30.70;19.65;;;;;;;;;;5057334;28;20041;-63
2022/09/08 09:05:51;;;;;;;29.15;20.13;;;;;;;;;;5053621;28;20033;-64
2022/09/08 09:08:36;;;;;;;27.85;19.35;;;;;;;;;;5051789;28;20049;-64
2022/09/08 09:11:08;;;;;;;22.25;16.17;;;;;;;;;;5032871;28;20418;-63
2022/09/08 09:13:54;;;;;;;20.48;14.00;;;;;;;;;;5055753;28;20059;-63
2022/09/08 09:16:43;;;;;;;16.50;12.55;;;;;;;;;;5050381;28;20048;-63
2022/09/08 09:19:27;;;;;;;16.52;11.32;;;;;;;;;;5052865;28;20237;-63
2022/09/08 09:22:15;;;;;;;15.90;10.98;;;;;;;;;;5031541;28;20108;-63
2022/09/08 09:24:59;;;;;;;15.35;11.15;;;;;;;;;;5042170;28;20041;-63
2022/09/08 09:27:33;;;;;;;12.90;10.00;;;;;;;;;;5057269;28;20052;-63
2022/09/08 09:30:13;;;;;;;12.07;8.65;;;;;;;;;;5064282;28;20077;-63
2022/09/08 09:32:51;;;;;;;13.50;9.15;;;;;;;;;;5045173;28;20480;-63
2022/09/08 09:35:20;;;;;;;11.95;9.75;;;;;;;;;;5065919;28;20041;-63
2022/09/08 09:37:49;;;;;;;14.63;10.05;;;;;;;;;;5051499;28;20076;-63
2022/09/08 09:40:25;;;;;;;12.07;9.90;;;;;;;;;;5051010;28;20098;-63
2022/09/08 09:42:51;;;;;;;14.43;9.05;;;;;;;;;;5055895;28;20048;-63
2022/09/08 09:45:38;;;;;;;13.90;9.20;;;;;;;;;;5065383;28;20041;-63
2022/09/08 09:48:23;;;;;;;10.63;8.68;;;;;;;;;;5059852;28;20040;-63
2022/09/08 09:50:58;;;;;;;10.52;8.00;;;;;;;;;;5056660;28;20090;-63
2022/09/08 09:53:50;;;;;;;11.77;8.40;;;;;;;;;;5044389;28;20487;-63
2022/09/08 09:56:35;;;;;;;19.70;9.50;;;;;;;;;;5021339;28;20402;-63
2022/09/08 09:59:04;;;;;;;15.25;7.75;;;;;;;;;;5038169;28;20052;-64
2022/09/08 10:01:48;;;;;;;10.07;6.63;;;;;;;;;;5048767;28;20044;-64
2022/09/08 10:04:14;;;;;;;8.75;5.30;;;;;;;;;;5055026;28;20127;-64
2022/09/08 10:06:59;;;;;;;8.05;5.40;;;;;;;;;;5048944;28;20052;-64
2022/09/08 10:09:25;;;;;;;5.25;3.58;;;;;;;;;;5054668;28;20090;-64
2022/09/08 10:11:55;;;;;;;6.25;3.70;;;;;;;;;;5048221;28;20557;-64
2022/09/08 10:14:39;;;;;;;5.20;4.00;;;;;;;;;;5037187;28;20505;-64
2022/09/08 10:17:08;;;;;;;6.65;3.65;;;;;;;;;;5046140;28;20045;-64
2022/09/08 10:19:37;;;;;;;5.57;3.63;;;;;;;;;;5055536;28;20402;-64
2022/09/08 10:22:22;;;;;;;5.30;3.47;;;;;;;;;;5061485;28;20044;-64
2022/09/08 10:24:48;;;;;;;4.75;3.47;;;;;;;;;;5038047;28;20386;-64
2022/09/08 10:27:33;;;;;;;4.07;3.15;;;;;;;;;;5043440;28;20037;-64
2022/09/08 10:30:11;;;;;;;6.82;3.45;;;;;;;;;;5042721;28;20048;-64
2022/09/08 10:32:52;;;;;;;7.00;3.72;;;;;;;;;;5041605;28;20120;-64
2022/09/08 10:35:37;;;;;;;5.88;3.60;;;;;;;;;;5040805;28;20434;-64
2022/09/08 10:38:03;;;;;;;5.10;3.90;;;;;;;;;;5036874;28;20064;-64
2022/09/08 10:40:48;;;;;;;6.75;4.38;;;;;;;;;;5050274;28;20041;-64
2022/09/08 10:43:32;;;;;;;8.50;4.50;;;;;;;;;;5047427;28;20056;-63
2022/09/08 10:46:04;;;;;;;6.25;3.70;;;;;;;;;;5042509;28;20050;-63
2022/09/08 10:48:49;;;;;;;7.38;4.80;;;;;;;;;;5061870;28;20166;-63
2022/09/08 10:51:20;;;;;;;6.90;4.60;;;;;;;;;;5050125;22;20492;-63
2022/09/08 10:53:46;;;;;;;6.35;4.25;;;;;;;;;;5026951;28;20053;-63
2022/09/08 10:56:14;;;;;;;7.40;4.40;;;;;;;;;;5027846;28;20061;-63
2022/09/08 10:58:52;;;;;;;6.55;3.42;;;;;;;;;;5027604;28;20029;-63
2022/09/08 11:01:30;;;;;;;5.38;4.20;;;;;;;;;;5000415;28;20053;-63
2022/09/08 11:04:16;;;;;;;5.60;4.53;;;;;;;;;;5008949;28;20041;-64
2022/09/08 11:06:57;;;;;;;6.20;4.45;;;;;;;;;;5009604;28;20045;-63
2022/09/08 11:09:34;;;;;;;6.13;4.93;;;;;;;;;;5006437;28;20042;-63
2022/09/08 11:12:20;;;;;;;6.13;4.30;;;;;;;;;;4983763;28;20060;-63
2022/09/08 11:14:59;;;;;;;7.40;4.85;;;;;;;;;;4999440;28;20042;-63
2022/09/08 11:17:26;;;;;;;6.35;5.00;;;;;;;;;;5010988;28;20472;-63
2022/09/08 11:20:02;;;;;;;5.60;4.47;;;;;;;;;;5011331;28;20041;-63
2022/09/08 11:22:37;;;;;;;5.18;4.40;;;;;;;;;;5009854;28;20125;-63
2022/09/08 11:25:22;;;;;;;5.97;4.90;;;;;;;;;;5013093;28;20033;-62
2022/09/08 11:27:51;;;;;;;7.20;4.63;;;;;;;;;;5014480;28;20088;-63
2022/09/08 11:30:21;;;;;;;6.85;4.75;;;;;;;;;;5001798;28;20053;-63
2022/09/08 11:33:00;;;;;;;7.80;5.03;;;;;;;;;;5011612;28;20495;-63
2022/09/08 11:35:43;;;;;;;6.50;5.40;;;;;;;;;;5011332;28;20440;-63
2022/09/08 11:38:09;;;;;;;7.03;5.22;;;;;;;;;;5019010;28;20048;-63
2022/09/08 11:40:50;;;;;;;6.53;5.38;;;;;;;;;;5015409;28;20041;-63
2022/09/08 11:43:35;;;;;;;8.95;5.88;;;;;;;;;;5011452;28;20045;-63
2022/09/08 11:46:04;;;;;;;7.50;5.72;;;;;;;;;;5011383;28;20092;-63
2022/09/08 11:48:33;;;;;;;8.57;6.00;;;;;;;;;;5008070;28;20486;-64
2022/09/08 11:51:02;;;;;;;7.95;5.65;;;;;;;;;;5009387;28;20509;-63
2022/09/08 11:53:47;;;;;;;8.10;5.53;;;;;;;;;;5007787;28;20510;-63
2022/09/08 11:56:27;;;;;;;6.93;5.20;;;;;;;;;;5007890;28;20040;-63
2022/09/08 11:59:12;;;;;;;6.97;5.75;;;;;;;;;;4990674;28;20071;-63
2022/09/08 12:01:57;;;;;;;7.75;5.93;;;;;;;;;;5003782;28;20034;-63
2022/09/08 12:04:35;;;;;;;6.53;5.55;;;;;;;;;;5014648;28;20074;-63
2022/09/08 12:07:07;;;;;;;6.43;5.28;;;;;;;;;;5024448;28;20038;-63
2022/09/08 12:09:42;;;;;;;7.82;5.93;;;;;;;;;;5011566;28;20373;-63
2022/09/08 12:12:20;;;;;;;8.52;5.72;;;;;;;;;;4994506;28;20185;-63
2022/09/08 12:14:58;;;;;;;8.35;5.80;;;;;;;;;;5008612;28;20038;-63
2022/09/08 12:17:43;;;;;;;8.98;6.30;;;;;;;;;;5010281;28;20049;-63
2022/09/08 12:20:29;;;;;;;7.97;6.80;;;;;;;;;;5008040;28;20037;-63
2022/09/08 12:23:04;;;;;;;8.90;7.03;;;;;;;;;;5018630;28;20558;-63
2022/09/08 12:25:49;;;;;;;9.65;7.38;;;;;;;;;;5011425;28;20040;-63
2022/09/08 12:28:24;;;;;;;12.23;7.07;;;;;;;;;;5006520;28;20042;-63
2022/09/08 12:30:50;;;;;;;10.43;7.15;;;;;;;;;;4989575;28;20046;-63
2022/09/08 12:33:16;;;;;;;9.77;7.78;;;;;;;;;;5012846;28;20084;-63
2022/09/08 12:35:50;;;;;;;8.68;7.28;;;;;;;;;;5016443;28;20091;-63
2022/09/08 12:38:34;;;;;;;10.55;8.07;;;;;;;;;;5015400;28;20499;-63
2022/09/08 12:41:10;;;;;;;10.40;8.43;;;;;;;;;;5005951;28;20050;-63
2022/09/08 12:43:41;;;;;;;13.27;8.73;;;;;;;;;;5006477;28;20037;-63
2022/09/08 12:46:24;;;;;;;11.10;8.80;;;;;;;;;;5017586;28;20448;-63
2022/09/08 12:48:50;;;;;;;11.82;8.80;;;;;;;;;;5009688;28;20045;-63
2022/09/08 12:51:31;;;;;;;11.98;9.73;;;;;;;;;;4989317;28;20037;-63
2022/09/08 12:54:12;;;;;;;12.27;9.50;;;;;;;;;;4995504;28;20057;-63
2022/09/08 12:56:53;;;;;;;14.98;9.10;;;;;;;;;;5017641;28;20049;-63
2022/09/08 12:59:33;;;;;;;11.70;9.20;;;;;;;;;;5009716;28;20049;-63
2022/09/08 13:02:11;;;;;;;14.55;9.82;;;;;;;;;;5021530;28;20068;-63
2022/09/08 13:04:37;;;;;;;14.60;11.35;;;;;;;;;;5008662;28;20041;-63
2022/09/08 13:07:13;;;;;;;13.75;10.30;;;;;;;;;;5008515;28;20032;-63
2022/09/08 13:09:55;;;;;;;13.45;10.80;;;;;;;;;;5001072;28;20563;-63
2022/09/08 13:12:21;;;;;;;17.08;10.93;;;;;;;;;;4992300;28;20048;-63
2022/09/08 13:15:13;;;;;;;15.82;10.45;;;;;;;;;;5010218;28;20033;-63
2022/09/08 13:18:05;;;;;;;12.85;9.57;;;;;;;;;;5010732;28;20040;-63
2022/09/08 13:20:42;;;;;;;13.68;10.57;;;;;;;;;;4959231;28;20077;-63
2022/09/08 13:23:31;;;;;;;15.15;11.35;;;;;;;;;;5010016;28;20420;-63
2022/09/08 13:26:16;;;;;;;14.43;10.60;;;;;;;;;;5005125;28;20045;-63
2022/09/08 13:28:51;;;;;;;12.82;10.57;;;;;;;;;;5009103;28;20045;-62
2022/09/08 13:31:18;;;;;;;13.15;10.45;;;;;;;;;;5009563;28;20133;-62
2022/09/08 13:34:02;;;;;;;15.43;11.07;;;;;;;;;;5018621;28;20049;-62
2022/09/08 13:36:47;;;;;;;15.70;10.52;;;;;;;;;;4998763;28;20038;-62
2022/09/08 13:39:39;;;;;;;14.30;11.80;;;;;;;;;;5007761;28;21528;-62
2022/09/08 13:42:05;;;;;;;15.43;11.15;;;;;;;;;;4979780;28;20064;-62
2022/09/08 13:44:50;;;;;;;14.20;10.95;;;;;;;;;;5010542;28;20064;-62
2022/09/08 13:47:24;;;;;;;13.43;11.32;;;;;;;;;;5011867;28;20041;-63
2022/09/08 13:50:04;;;;;;;16.45;11.20;;;;;;;;;;5008077;28;20095;-63
2022/09/08 13:52:36;;;;;;;14.50;11.45;;;;;;;;;;5005787;28;20415;-63
2022/09/08 13:55:02;;;;;;;17.10;11.48;;;;;;;;;;5008638;28;20041;-63
2022/09/08 13:57:31;;;;;;;14.18;11.13;;;;;;;;;;5001367;28;20042;-62
2022/09/08 14:00:10;;;;;;;16.17;11.30;;;;;;;;;;5008952;28;20162;-63
2022/09/08 14:02:40;;;;;;;15.48;10.80;;;;;;;;;;5012647;28;20041;-63
2022/09/08 14:05:19;;;;;;;13.13;10.82;;;;;;;;;;5008211;28;20443;-62
2022/09/08 14:07:48;;;;;;;15.13;11.88;;;;;;;;;;5009533;28;20065;-63
2022/09/08 14:10:14;;;;;;;14.27;11.10;;;;;;;;;;5016476;28;20041;-63
2022/09/08 14:12:50;;;;;;;13.90;10.65;;;;;;;;;;5000516;28;20492;-62
2022/09/08 14:15:19;;;;;;;16.60;11.60;;;;;;;;;;5009916;28;20496;-62
2022/09/08 14:17:51;;;;;;;16.40;11.07;;;;;;;;;;5002217;28;20050;-63
2022/09/08 14:20:44;;;;;;;15.70;11.43;;;;;;;;;;5005738;28;20038;-62
2022/09/08 14:23:29;;;;;;;16.67;11.13;;;;;;;;;;4999770;28;20066;-63
2022/09/08 14:26:18;;;;;;;15.40;11.23;;;;;;;;;;5009152;28;20446;-63
2022/09/08 14:29:07;;;;;;;20.13;12.15;;;;;;;;;;4963896;28;20085;-62
2022/09/08 14:31:52;;;;;;;16.60;12.15;;;;;;;;;;4964390;28;20046;-63
2022/09/08 14:34:28;;;;;;;16.20;12.13;;;;;;;;;;4989146;28;20072;-63
2022/09/08 14:37:14;;;;;;;7.10;4.00;;;;;;;;;;5003836;28;20441;-63
2022/09/08 14:39:52;;;;;;;5.95;2.13;;;;;;;;;;5004707;28;20455;-64
2022/09/08 14:42:18;;;;;;;5.00;1.98;;;;;;;;;;5004767;28;20067;-64
2022/09/08 14:44:47;;;;;;;4.95;1.80;;;;;;;;;;5006268;28;20069;-64
2022/09/08 14:47:30;;;;;;;4.63;2.05;;;;;;;;;;5009650;28;20076;-64
2022/09/08 14:50:15;;;;;;;4.03;1.80;;;;;;;;;;5000927;28;20045;-64
2022/09/08 14:52:56;;;;;;;3.53;1.63;;;;;;;;;;5013684;28;20048;-63
2022/09/08 14:55:22;;;;;;;;;;;;;;;;;;5013915;28;20052;-63
2022/09/08 14:57:49;;;;;;;3.03;1.83;;;;;;;;;;5007515;28;19917;-63
2022/09/08 15:00:22;;;;;;;2.67;1.85;;;;;;;;;;5009050;28;20081;-63
2022/09/08 15:03:12;;;;;;;1.98;1.75;;;;;;;;;;5012301;28;20080;-63